createdAt,value
2023-07-01T00:00:45.726Z,18.40
2023-07-01T00:03:13.167Z,18.40
2023-07-01T00:05:40.444Z,18.40
2023-07-01T00:08:07.737Z,18.40
2023-07-01T00:10:35.083Z,18.40
2023-07-01T00:13:02.517Z,18.40
2023-07-01T00:15:30.079Z,18.30
2023-07-01T00:17:57.455Z,18.20
2023-07-01T00:20:28.053Z,18.20
2023-07-01T00:22:55.457Z,18.30
2023-07-01T00:25:24.274Z,18.20
2023-07-01T00:27:51.548Z,18.30
2023-07-01T00:30:18.844Z,18.30
2023-07-01T00:32:46.109Z,18.10
2023-07-01T00:35:13.425Z,18.10
2023-07-01T00:37:40.650Z,18.10
2023-07-01T00:40:08.512Z,18.10
2023-07-01T00:42:35.924Z,18.20
2023-07-01T00:45:03.309Z,18.10
2023-07-01T00:47:30.579Z,18.10
2023-07-01T00:49:58.714Z,18.20
2023-07-01T00:52:26.300Z,18.30
2023-07-01T00:54:53.590Z,18.40
2023-07-01T00:57:20.899Z,18.40
2023-07-01T00:59:48.241Z,18.30
2023-07-01T01:02:27.375Z,18.20
2023-07-01T01:05:03.130Z,18.20
2023-07-01T01:07:44.539Z,18.30
2023-07-01T01:10:18.358Z,18.20
2023-07-01T01:12:46.447Z,18.30
2023-07-01T01:15:14.033Z,18.20
2023-07-01T01:17:44.097Z,18.20
2023-07-01T01:20:17.569Z,18.30
2023-07-01T01:22:55.256Z,18.20
2023-07-01T01:25:31.336Z,18.10
2023-07-01T01:27:59.374Z,18.10
2023-07-01T01:30:34.306Z,18.10
2023-07-01T01:33:02.754Z,18.10
2023-07-01T01:35:30.120Z,18.10
2023-07-01T01:37:57.416Z,18.10
2023-07-01T01:40:30.421Z,18.10
2023-07-01T01:43:13.688Z,18.10
2023-07-01T01:45:41.896Z,18.10
2023-07-01T01:48:11.869Z,18.10
2023-07-01T01:50:41.025Z,18.00
2023-07-01T01:53:11.544Z,17.90
2023-07-01T01:55:40.509Z,17.80
2023-07-01T01:58:08.357Z,17.80
2023-07-01T02:00:36.425Z,17.90
2023-07-01T02:03:04.029Z,17.90
2023-07-01T02:05:31.581Z,18.00
2023-07-01T02:08:03.569Z,18.00
2023-07-01T02:10:31.199Z,17.90
2023-07-01T02:12:58.566Z,17.90
2023-07-01T02:15:25.918Z,18.00
2023-07-01T02:17:54.455Z,18.00
2023-07-01T02:20:21.792Z,17.90
2023-07-01T02:22:49.134Z,17.90
2023-07-01T02:25:16.585Z,17.90
2023-07-01T02:27:44.006Z,17.90
2023-07-01T02:30:11.646Z,17.80
2023-07-01T02:32:38.915Z,17.80
2023-07-01T02:35:07.058Z,17.80
2023-07-01T02:37:34.673Z,17.90
2023-07-01T02:40:04.208Z,17.90
2023-07-01T02:42:31.581Z,17.90
2023-07-01T02:44:58.854Z,17.90
2023-07-01T02:47:26.205Z,17.90
2023-07-01T02:49:53.537Z,17.90
2023-07-01T02:52:21.016Z,17.90
2023-07-01T02:54:48.293Z,17.90
2023-07-01T02:57:15.567Z,17.90
2023-07-01T02:59:44.020Z,17.90
2023-07-01T03:02:11.495Z,17.90
2023-07-01T03:04:38.981Z,17.80
2023-07-01T03:07:06.614Z,17.80
2023-07-01T03:09:33.867Z,17.90
2023-07-01T03:12:01.160Z,17.90
2023-07-01T03:14:28.756Z,17.90
2023-07-01T03:16:56.322Z,17.80
2023-07-01T03:19:24.489Z,17.80
2023-07-01T03:21:51.775Z,17.80
2023-07-01T03:24:19.062Z,17.80
2023-07-01T03:26:46.995Z,17.80
2023-07-01T03:29:14.429Z,17.70
2023-07-01T03:31:41.698Z,17.70
2023-07-01T03:34:08.967Z,17.70
2023-07-01T03:36:37.547Z,17.70
2023-07-01T03:39:06.280Z,17.80
2023-07-01T03:41:33.623Z,17.90
2023-07-01T03:44:00.991Z,17.90
2023-07-01T03:46:28.294Z,17.90
2023-07-01T03:48:56.824Z,17.90
2023-07-01T03:51:24.773Z,18.00
2023-07-01T03:53:52.917Z,18.00
2023-07-01T03:56:20.201Z,17.90
2023-07-01T03:58:47.545Z,17.90
2023-07-01T04:01:17.642Z,17.90
2023-07-01T04:03:45.455Z,17.90
2023-07-01T04:06:12.780Z,17.90
2023-07-01T04:08:40.040Z,17.90
2023-07-01T04:11:07.521Z,17.90
2023-07-01T04:13:34.954Z,17.90
2023-07-01T04:16:02.242Z,17.90
2023-07-01T04:18:29.743Z,18.00
2023-07-01T04:20:57.012Z,18.00
2023-07-01T04:23:24.276Z,17.90
2023-07-01T04:25:51.563Z,17.90
2023-07-01T04:28:18.858Z,18.00
2023-07-01T04:30:46.575Z,18.00
2023-07-01T04:33:14.276Z,18.00
2023-07-01T04:35:41.555Z,18.00
2023-07-01T04:38:08.785Z,18.00
2023-07-01T04:40:36.796Z,18.10
2023-07-01T04:43:05.277Z,18.10
2023-07-01T04:45:34.972Z,18.10
2023-07-01T04:48:02.383Z,18.10
2023-07-01T04:50:30.023Z,18.10
2023-07-01T04:52:57.385Z,18.00
2023-07-01T04:55:24.711Z,18.00
2023-07-01T04:57:52.782Z,17.90
2023-07-01T05:00:20.155Z,18.00
2023-07-01T05:02:47.781Z,18.00
2023-07-01T05:05:15.308Z,18.10
2023-07-01T05:07:42.665Z,18.10
2023-07-01T05:10:10.350Z,18.10
2023-07-01T05:12:37.668Z,18.10
2023-07-01T05:15:05.596Z,18.10
2023-07-01T05:17:32.852Z,18.10
2023-07-01T05:20:00.273Z,18.10
2023-07-01T05:22:27.581Z,18.20
2023-07-01T05:24:55.003Z,18.10
2023-07-01T05:27:22.285Z,18.20
2023-07-01T05:29:49.555Z,18.20
2023-07-01T05:32:16.879Z,18.20
2023-07-01T05:34:44.609Z,18.20
2023-07-01T05:37:12.067Z,18.30
2023-07-01T05:39:39.413Z,18.30
2023-07-01T05:42:06.977Z,18.30
2023-07-01T05:44:35.247Z,18.30
2023-07-01T05:47:02.553Z,18.30
2023-07-01T05:49:29.823Z,18.40
2023-07-01T05:51:57.042Z,18.40
2023-07-01T05:54:24.383Z,18.50
2023-07-01T05:56:51.639Z,18.50
2023-07-01T05:59:19.002Z,18.50
2023-07-01T06:01:46.321Z,18.40
2023-07-01T06:04:13.779Z,18.50
2023-07-01T06:06:41.226Z,18.40
2023-07-01T06:09:09.641Z,18.40
2023-07-01T06:11:37.346Z,18.40
2023-07-01T06:14:04.653Z,18.40
2023-07-01T06:16:32.148Z,18.30
2023-07-01T06:18:59.637Z,18.40
2023-07-01T06:21:27.360Z,18.40
2023-07-01T06:23:56.209Z,18.40
2023-07-01T06:26:24.199Z,18.50
2023-07-01T06:28:51.564Z,18.50
2023-07-01T06:31:18.933Z,18.60
2023-07-01T06:33:46.827Z,18.50
2023-07-01T06:36:15.811Z,18.50
2023-07-01T06:38:43.155Z,18.50
2023-07-01T06:41:10.540Z,18.50
2023-07-01T06:43:40.291Z,18.60
2023-07-01T06:46:07.697Z,18.60
2023-07-01T06:48:35.125Z,18.70
2023-07-01T06:51:04.922Z,18.80
2023-07-01T06:53:32.702Z,18.70
2023-07-01T06:56:00.081Z,18.80
2023-07-01T06:58:27.404Z,18.80
2023-07-01T07:00:54.718Z,18.80
2023-07-01T07:03:22.335Z,18.90
2023-07-01T07:05:49.857Z,19.10
2023-07-01T07:08:17.272Z,19.10
2023-07-01T07:10:45.134Z,19.10
2023-07-01T07:13:12.699Z,19.20
2023-07-01T07:15:40.933Z,19.40
2023-07-01T07:18:10.969Z,19.40
2023-07-01T07:20:39.742Z,19.50
2023-07-01T07:23:07.585Z,19.60
2023-07-01T07:25:35.383Z,19.70
2023-07-01T07:28:03.681Z,19.60
2023-07-01T07:30:31.631Z,19.60
2023-07-01T07:32:58.930Z,19.60
2023-07-01T07:35:26.219Z,19.50
2023-07-01T07:37:53.502Z,19.50
2023-07-01T07:40:20.918Z,19.50
2023-07-01T07:42:54.000Z,19.60
2023-07-01T07:45:24.770Z,19.60
2023-07-01T07:47:52.251Z,19.60
2023-07-01T07:50:23.551Z,19.50
2023-07-01T07:52:50.987Z,19.50
2023-07-01T07:55:18.363Z,19.50
2023-07-01T07:57:45.771Z,19.50
2023-07-01T08:00:13.834Z,19.50
2023-07-01T08:02:45.738Z,19.60
2023-07-01T08:05:19.498Z,19.60
2023-07-01T08:07:48.082Z,19.50
2023-07-01T08:10:17.288Z,19.40
2023-07-01T08:12:44.950Z,19.40
2023-07-01T08:15:12.373Z,19.50
2023-07-01T08:17:40.385Z,19.50
2023-07-01T08:20:08.497Z,19.60
2023-07-01T08:22:35.921Z,19.80
2023-07-01T08:25:03.995Z,19.90
2023-07-01T08:27:31.310Z,19.90
2023-07-01T08:29:58.608Z,20.00
2023-07-01T08:32:25.983Z,20.10
2023-07-01T08:34:53.249Z,20.10
2023-07-01T08:37:20.801Z,20.00
2023-07-01T08:39:48.122Z,20.00
2023-07-01T08:42:23.104Z,20.00
2023-07-01T08:44:52.717Z,20.10
2023-07-01T08:47:20.842Z,20.10
2023-07-01T08:49:52.130Z,20.10
2023-07-01T08:52:23.012Z,20.00
2023-07-01T08:54:50.768Z,20.10
2023-07-01T08:57:20.843Z,20.10
2023-07-01T08:59:49.165Z,20.00
2023-07-01T09:02:16.915Z,19.90
2023-07-01T09:04:47.525Z,20.00
2023-07-01T09:07:15.361Z,20.00
2023-07-01T09:09:44.891Z,19.90
2023-07-01T09:12:12.178Z,19.90
2023-07-01T09:15:02.090Z,20.00
2023-07-01T09:17:31.513Z,20.10
2023-07-01T09:20:00.989Z,20.10
2023-07-01T09:22:29.626Z,20.10
2023-07-01T09:24:57.391Z,20.10
2023-07-01T09:27:25.624Z,20.30
2023-07-01T09:29:53.690Z,20.30
2023-07-01T09:32:30.470Z,20.20
2023-07-01T09:34:58.587Z,20.10
2023-07-01T09:37:26.649Z,20.20
2023-07-01T09:39:54.251Z,20.40
2023-07-01T09:42:21.625Z,20.50
2023-07-01T09:45:10.884Z,20.40
2023-07-01T09:47:38.513Z,20.50
2023-07-01T09:50:06.454Z,20.40
2023-07-01T09:52:35.407Z,20.40
2023-07-01T09:55:04.534Z,20.70
2023-07-01T09:57:32.529Z,20.70
2023-07-01T10:00:01.206Z,20.60
2023-07-01T10:02:29.130Z,20.50
2023-07-01T10:04:56.829Z,20.20
2023-07-01T10:07:24.254Z,20.00
2023-07-01T10:09:52.729Z,19.70
2023-07-01T10:12:21.497Z,19.80
2023-07-01T10:14:52.246Z,19.70
2023-07-01T10:17:20.250Z,19.50
2023-07-01T10:19:48.165Z,19.50
2023-07-01T10:22:27.735Z,19.40
2023-07-01T10:25:07.128Z,19.30
2023-07-01T10:28:00.688Z,19.20
2023-07-01T10:30:48.715Z,19.10
2023-07-01T10:33:34.555Z,19.10
2023-07-01T10:36:12.532Z,19.00
2023-07-01T10:38:40.430Z,19.10
2023-07-01T10:41:07.912Z,19.00
2023-07-01T10:43:39.350Z,18.90
2023-07-01T10:46:26.058Z,18.90
2023-07-01T10:49:05.619Z,18.80
2023-07-01T10:51:45.377Z,18.70
2023-07-01T10:54:12.692Z,18.80
2023-07-01T10:56:43.678Z,18.70
2023-07-01T10:59:22.484Z,18.70
2023-07-01T11:01:50.028Z,18.70
2023-07-01T11:04:20.000Z,18.80
2023-07-01T11:06:59.723Z,18.90
2023-07-01T11:09:29.747Z,19.00
2023-07-01T11:11:58.381Z,19.10
2023-07-01T11:14:37.419Z,19.00
2023-07-01T11:17:14.352Z,18.90
2023-07-01T11:19:42.043Z,18.70
2023-07-01T11:22:14.001Z,18.60
2023-07-01T11:24:42.017Z,18.40
2023-07-01T11:27:10.199Z,18.20
2023-07-01T11:29:39.407Z,18.10
2023-07-01T11:32:14.055Z,18.00
2023-07-01T11:34:42.685Z,18.00
2023-07-01T11:37:10.174Z,18.10
2023-07-01T11:39:47.947Z,18.20
2023-07-01T11:42:15.365Z,18.40
2023-07-01T11:44:42.734Z,18.50
2023-07-01T11:47:15.339Z,18.60
2023-07-01T11:49:43.061Z,18.80
2023-07-01T11:52:10.551Z,19.10
2023-07-01T11:54:40.472Z,19.30
2023-07-01T11:57:15.698Z,19.60
2023-07-01T12:00:00.303Z,19.50
2023-07-01T12:02:29.607Z,19.60
2023-07-01T12:04:57.694Z,19.70
2023-07-01T12:07:25.156Z,19.80
2023-07-01T12:09:53.047Z,19.90
2023-07-01T12:12:37.621Z,20.00
2023-07-01T12:15:07.444Z,19.90
2023-07-01T12:17:36.448Z,19.90
2023-07-01T12:20:07.146Z,20.10
2023-07-01T12:22:34.542Z,20.00
2023-07-01T12:25:03.739Z,20.10
2023-07-01T12:27:32.242Z,20.30
2023-07-01T12:29:59.485Z,20.40
2023-07-01T12:32:27.665Z,20.40
2023-07-01T12:34:56.787Z,20.70
2023-07-01T12:37:24.867Z,20.70
2023-07-01T12:39:57.044Z,20.90
2023-07-01T12:42:25.630Z,21.20
2023-07-01T12:44:52.912Z,21.20
2023-07-01T12:47:20.931Z,21.60
2023-07-01T12:49:48.542Z,21.60
2023-07-01T12:52:15.947Z,21.70
2023-07-01T12:54:43.209Z,21.60
2023-07-01T12:57:10.597Z,21.70
2023-07-01T12:59:37.934Z,21.60
2023-07-01T13:02:06.309Z,21.70
2023-07-01T13:04:34.473Z,21.80
2023-07-01T13:07:01.862Z,21.70
2023-07-01T13:09:44.849Z,21.60
2023-07-01T13:12:14.142Z,21.70
2023-07-01T13:14:41.830Z,21.70
2023-07-01T13:17:10.448Z,21.90
2023-07-01T13:19:38.078Z,21.70
2023-07-01T13:22:05.558Z,21.90
2023-07-01T13:24:39.807Z,21.80
2023-07-01T13:27:10.105Z,21.70
2023-07-01T13:29:37.546Z,21.60
2023-07-01T13:32:05.684Z,21.50
2023-07-01T13:34:42.260Z,21.50
2023-07-01T13:37:13.111Z,21.40
2023-07-01T13:39:44.820Z,21.40
2023-07-01T13:42:12.796Z,21.30
2023-07-01T13:44:41.459Z,21.20
2023-07-01T13:47:11.656Z,21.10
2023-07-01T13:49:39.924Z,21.00
2023-07-01T13:52:07.624Z,20.80
2023-07-01T13:54:35.229Z,20.60
2023-07-01T13:57:03.134Z,20.50
2023-07-01T13:59:31.842Z,20.40
2023-07-01T14:02:03.687Z,20.20
2023-07-01T14:04:33.341Z,20.30
2023-07-01T14:07:05.638Z,20.20
2023-07-01T14:09:37.227Z,20.20
2023-07-01T14:12:05.000Z,20.00
2023-07-01T14:14:34.008Z,20.10
2023-07-01T14:17:02.994Z,20.20
2023-07-01T14:19:30.492Z,20.10
2023-07-01T14:22:01.123Z,19.90
2023-07-01T14:24:29.829Z,20.00
2023-07-01T14:27:00.135Z,19.90
2023-07-01T14:29:28.825Z,19.80
2023-07-01T14:31:58.419Z,19.80
2023-07-01T14:34:40.413Z,19.60
2023-07-01T14:37:07.866Z,19.40
2023-07-01T14:39:46.015Z,19.20
2023-07-01T14:42:29.139Z,19.10
2023-07-01T14:44:57.993Z,18.90
2023-07-01T14:47:25.467Z,18.80
2023-07-01T14:49:52.904Z,18.70
2023-07-01T14:52:21.925Z,18.70
2023-07-01T14:54:50.666Z,18.80
2023-07-01T14:57:18.007Z,18.80
2023-07-01T14:59:45.285Z,18.70
2023-07-01T15:02:12.791Z,18.70
2023-07-01T15:04:40.332Z,18.70
2023-07-01T15:07:09.747Z,18.80
2023-07-01T15:09:37.196Z,18.80
2023-07-01T15:12:04.944Z,18.80
2023-07-01T15:14:32.307Z,18.80
2023-07-01T15:16:59.625Z,18.90
2023-07-01T15:19:27.299Z,19.00
2023-07-01T15:21:54.632Z,18.90
2023-07-01T15:24:21.916Z,18.90
2023-07-01T15:26:49.211Z,18.90
2023-07-01T15:29:16.576Z,18.90
2023-07-01T15:31:43.982Z,19.10
2023-07-01T15:34:11.689Z,18.90
2023-07-01T15:36:39.595Z,19.10
2023-07-01T15:39:06.909Z,19.00
2023-07-01T15:41:46.160Z,19.10
2023-07-01T15:44:15.040Z,19.30
2023-07-01T15:46:42.651Z,19.40
2023-07-01T15:49:09.984Z,19.50
2023-07-01T15:51:39.049Z,19.80
2023-07-01T15:54:06.404Z,20.00
2023-07-01T15:56:33.720Z,20.10
2023-07-01T15:59:00.951Z,20.40
2023-07-01T16:01:28.907Z,20.70
2023-07-01T16:03:56.530Z,20.90
2023-07-01T16:06:23.980Z,21.10
2023-07-01T16:08:51.484Z,21.50
2023-07-01T16:11:33.278Z,22.00
2023-07-01T16:14:05.151Z,22.40
2023-07-01T16:16:44.153Z,22.20
2023-07-01T16:19:18.623Z,22.00
2023-07-01T16:21:46.557Z,21.80
2023-07-01T16:24:50.162Z,21.60
2023-07-01T16:27:18.401Z,21.50
2023-07-01T16:29:46.186Z,21.30
2023-07-01T16:32:23.306Z,21.10
2023-07-01T16:34:52.436Z,20.90
2023-07-01T16:37:20.562Z,20.80
2023-07-01T16:39:52.816Z,20.60
2023-07-01T16:42:21.373Z,20.60
2023-07-01T16:44:54.533Z,20.50
2023-07-01T16:47:24.632Z,20.40
2023-07-01T16:49:57.817Z,20.10
2023-07-01T16:52:29.871Z,20.20
2023-07-01T16:54:58.131Z,20.00
2023-07-01T16:57:25.531Z,20.10
2023-07-01T16:59:52.854Z,20.10
2023-07-01T17:02:32.400Z,20.00
2023-07-01T17:05:02.174Z,19.80
2023-07-01T17:07:32.016Z,19.60
2023-07-01T17:10:02.310Z,19.50
2023-07-01T17:12:33.249Z,19.50
2023-07-01T17:15:01.827Z,19.40
2023-07-01T17:17:35.253Z,19.40
2023-07-01T17:20:08.608Z,19.30
2023-07-01T17:22:36.772Z,19.20
2023-07-01T17:25:04.528Z,19.30
2023-07-01T17:27:31.793Z,19.10
2023-07-01T17:29:59.238Z,19.10
2023-07-01T17:32:26.557Z,19.20
2023-07-01T17:35:02.679Z,19.20
2023-07-01T17:37:29.951Z,19.30
2023-07-01T17:39:57.961Z,19.20
2023-07-01T17:42:25.300Z,19.10
2023-07-01T17:44:56.213Z,19.00
2023-07-01T17:47:23.945Z,19.00
2023-07-01T17:49:51.256Z,19.00
2023-07-01T17:52:18.568Z,19.00
2023-07-01T17:54:45.841Z,19.00
2023-07-01T17:57:13.277Z,18.90
2023-07-01T17:59:40.668Z,18.80
2023-07-01T18:02:08.796Z,18.70
2023-07-01T18:04:36.154Z,18.60
2023-07-01T18:07:03.586Z,18.50
2023-07-01T18:09:30.882Z,18.50
2023-07-01T18:11:58.382Z,18.40
2023-07-01T18:14:25.733Z,18.40
2023-07-01T18:16:53.964Z,18.50
2023-07-01T18:19:21.457Z,18.50
2023-07-01T18:21:48.809Z,18.40
2023-07-01T18:24:17.102Z,18.40
2023-07-01T18:26:46.891Z,18.30
2023-07-01T18:29:14.386Z,18.30
2023-07-01T18:31:43.823Z,18.20
2023-07-01T18:34:14.078Z,18.20
2023-07-01T18:36:41.319Z,18.00
2023-07-01T18:39:08.618Z,17.90
2023-07-01T18:41:37.718Z,17.90
2023-07-01T18:44:07.701Z,17.80
2023-07-01T18:46:35.084Z,17.80
2023-07-01T18:49:02.434Z,17.70
2023-07-01T18:51:30.697Z,17.80
2023-07-01T18:53:58.558Z,17.80
2023-07-01T18:56:26.417Z,17.80
2023-07-01T18:58:53.737Z,17.80
2023-07-01T19:01:21.156Z,17.70
2023-07-01T19:03:49.392Z,17.70
2023-07-01T19:06:16.692Z,17.70
2023-07-01T19:08:44.132Z,17.70
2023-07-01T19:11:12.917Z,17.60
2023-07-01T19:13:40.384Z,17.70
2023-07-01T19:16:07.703Z,17.70
2023-07-01T19:18:35.251Z,17.70
2023-07-01T19:21:02.732Z,17.70
2023-07-01T19:23:35.226Z,17.60
2023-07-01T19:26:02.544Z,17.60
2023-07-01T19:28:29.901Z,17.60
2023-07-01T19:30:57.808Z,17.60
2023-07-01T19:33:25.926Z,17.60
2023-07-01T19:35:54.146Z,17.50
2023-07-01T19:38:21.932Z,17.50
2023-07-01T19:40:49.437Z,17.40
2023-07-01T19:43:19.409Z,17.40
2023-07-01T19:45:47.279Z,17.30
2023-07-01T19:48:14.995Z,17.30
2023-07-01T19:50:42.582Z,17.30
2023-07-01T19:53:10.155Z,17.30
2023-07-01T19:55:37.405Z,17.30
2023-07-01T19:58:04.735Z,17.30
2023-07-01T20:00:32.052Z,17.40
2023-07-01T20:02:59.394Z,17.40
2023-07-01T20:05:26.800Z,17.40
2023-07-01T20:07:54.213Z,17.30
2023-07-01T20:10:30.428Z,17.30
2023-07-01T20:12:59.735Z,17.20
2023-07-01T20:15:27.531Z,17.20
2023-07-01T20:17:55.126Z,17.10
2023-07-01T20:20:22.676Z,17.10
2023-07-01T20:22:49.898Z,17.10
2023-07-01T20:25:17.346Z,17.10
2023-07-01T20:27:46.180Z,17.10
2023-07-01T20:30:14.384Z,17.10
2023-07-01T20:32:41.954Z,17.10
2023-07-01T20:35:09.546Z,17.00
2023-07-01T20:37:37.185Z,17.10
2023-07-01T20:40:04.975Z,17.00
2023-07-01T20:42:32.615Z,17.10
2023-07-01T20:44:59.849Z,16.90
2023-07-01T20:47:27.171Z,17.00
2023-07-01T20:49:54.681Z,17.00
2023-07-01T20:52:22.219Z,17.00
2023-07-01T20:54:49.674Z,16.80
2023-07-01T20:57:17.805Z,16.80
2023-07-01T20:59:46.233Z,16.90
2023-07-01T21:02:13.861Z,16.80
2023-07-01T21:04:41.945Z,16.90
2023-07-01T21:07:09.799Z,16.90
2023-07-01T21:09:37.168Z,16.80
2023-07-01T21:12:04.920Z,16.90
2023-07-01T21:14:32.275Z,16.90
2023-07-01T21:16:59.620Z,16.90
2023-07-01T21:19:28.024Z,16.90
2023-07-01T21:21:55.354Z,16.90
2023-07-01T21:24:22.611Z,16.90
2023-07-01T21:26:50.053Z,16.90
2023-07-01T21:29:18.411Z,16.90
2023-07-01T21:31:50.733Z,16.80
2023-07-01T21:34:20.674Z,16.70
2023-07-01T21:36:53.523Z,16.70
2023-07-01T21:39:23.440Z,16.80
2023-07-01T21:41:51.212Z,16.70
2023-07-01T21:44:18.967Z,16.70
2023-07-01T21:46:46.826Z,16.70
2023-07-01T21:49:14.548Z,16.60
2023-07-01T21:51:48.179Z,16.60
2023-07-01T21:54:21.028Z,16.60
2023-07-01T21:56:49.672Z,16.50
2023-07-01T21:59:17.716Z,16.50
2023-07-01T22:01:47.191Z,16.50
2023-07-01T22:04:16.209Z,16.50
2023-07-01T22:06:51.188Z,16.40
2023-07-01T22:09:18.670Z,16.40
2023-07-01T22:11:46.520Z,16.40
2023-07-01T22:14:14.193Z,16.30
2023-07-01T22:16:41.700Z,16.30
2023-07-01T22:19:09.234Z,16.30
2023-07-01T22:21:36.582Z,16.20
2023-07-01T22:24:05.538Z,16.10
2023-07-01T22:26:34.261Z,16.00
2023-07-01T22:29:02.273Z,16.00
2023-07-01T22:31:30.035Z,15.90
2023-07-01T22:33:58.367Z,15.80
2023-07-01T22:36:26.998Z,15.80
2023-07-01T22:38:56.985Z,15.80
2023-07-01T22:41:25.380Z,15.60
2023-07-01T22:43:52.852Z,15.60
2023-07-01T22:46:20.191Z,15.60
2023-07-01T22:48:47.503Z,15.50
2023-07-01T22:51:14.834Z,15.40
2023-07-01T22:53:42.798Z,15.50
2023-07-01T22:56:10.158Z,15.40
2023-07-01T22:58:37.413Z,15.30
2023-07-01T23:01:04.830Z,15.20
2023-07-01T23:03:32.241Z,15.20
2023-07-01T23:05:59.641Z,15.10
2023-07-01T23:08:26.907Z,15.10
2023-07-01T23:10:54.255Z,15.10
2023-07-01T23:13:21.888Z,15.10
2023-07-01T23:15:49.468Z,15.10
2023-07-01T23:18:16.711Z,15.10
2023-07-01T23:20:44.786Z,15.10
2023-07-01T23:23:14.687Z,14.90
2023-07-01T23:25:45.783Z,14.90
2023-07-01T23:28:14.148Z,14.80
2023-07-01T23:30:42.484Z,15.00
2023-07-01T23:33:10.784Z,14.90
2023-07-01T23:35:38.530Z,15.00
2023-07-01T23:38:05.839Z,14.90
2023-07-01T23:40:33.142Z,14.80
2023-07-01T23:43:00.394Z,14.90
2023-07-01T23:45:27.774Z,14.80
2023-07-01T23:47:55.110Z,14.60
2023-07-01T23:50:24.052Z,14.60
2023-07-01T23:52:51.556Z,14.60
2023-07-01T23:55:18.920Z,14.60
2023-07-01T23:57:46.226Z,14.50
